sensor_id;sensor_type;location;lat;lon;timestamp;pressure;altitude;pressure_sealevel;temperature;humidity
72024;BME280;59889;50.700;5.440;2022-09-16T00:01:35;99622.14;;;26.12;30.47
72024;BME280;59889;50.700;5.440;2022-09-16T00:04:01;99620.44;;;26.03;30.55
72024;BME280;59889;50.700;5.440;2022-09-16T00:06:28;99619.92;;;26.30;30.51
72024;BME280;59889;50.700;5.440;2022-09-16T00:08:54;99618.47;;;26.07;30.51
72024;BME280;59889;50.700;5.440;2022-09-16T00:11:19;99612.51;;;26.34;30.47
72024;BME280;59889;50.700;5.440;2022-09-16T00:13:45;99611.08;;;26.31;30.49
72024;BME280;59889;50.700;5.440;2022-09-16T00:16:17;99611.84;;;26.34;30.50
72024;BME280;59889;50.700;5.440;2022-09-16T00:18:36;99610.06;;;26.34;30.48
72024;BME280;59889;50.700;5.440;2022-09-16T00:21:06;99608.60;;;26.43;30.33
72024;BME280;59889;50.700;5.440;2022-09-16T00:23:28;99620.60;;;26.12;30.46
72024;BME280;59889;50.700;5.440;2022-09-16T00:25:54;99616.34;;;26.14;30.42
72024;BME280;59889;50.700;5.440;2022-09-16T00:28:20;99618.91;;;26.07;30.48
72024;BME280;59889;50.700;5.440;2022-09-16T00:30:45;99620.37;;;25.99;30.60
72024;BME280;59889;50.700;5.440;2022-09-16T00:33:10;99626.41;;;26.26;30.55
72024;BME280;59889;50.700;5.440;2022-09-16T00:35:36;99624.22;;;26.25;30.52
72024;BME280;59889;50.700;5.440;2022-09-16T00:38:01;99626.05;;;26.16;30.42
72024;BME280;59889;50.700;5.440;2022-09-16T00:40:27;99629.40;;;26.34;30.49
72024;BME280;59889;50.700;5.440;2022-09-16T00:42:53;99628.87;;;26.36;30.44
72024;BME280;59889;50.700;5.440;2022-09-16T00:45:21;99634.94;;;26.33;30.51
72024;BME280;59889;50.700;5.440;2022-09-16T00:47:48;99634.72;;;26.32;30.48
72024;BME280;59889;50.700;5.440;2022-09-16T00:50:14;99634.70;;;26.33;30.51
72024;BME280;59889;50.700;5.440;2022-09-16T00:52:37;99634.87;;;26.11;30.46
72024;BME280;59889;50.700;5.440;2022-09-16T00:55:06;99634.26;;;26.23;30.58
72024;BME280;59889;50.700;5.440;2022-09-16T00:57:28;99634.50;;;26.35;30.45
72024;BME280;59889;50.700;5.440;2022-09-16T00:59:54;99635.98;;;26.30;30.49
72024;BME280;59889;50.700;5.440;2022-09-16T01:02:21;99638.38;;;26.31;30.51
72024;BME280;59889;50.700;5.440;2022-09-16T01:04:50;99637.78;;;25.95;30.64
72024;BME280;59889;50.700;5.440;2022-09-16T01:07:11;99633.60;;;26.04;30.55
72024;BME280;59889;50.700;5.440;2022-09-16T01:09:37;99635.69;;;26.02;30.54
72024;BME280;59889;50.700;5.440;2022-09-16T01:12:03;99637.50;;;26.29;30.52
72024;BME280;59889;50.700;5.440;2022-09-16T01:14:29;99638.55;;;26.25;30.54
72024;BME280;59889;50.700;5.440;2022-09-16T01:16:57;99636.64;;;26.00;30.55
72024;BME280;59889;50.700;5.440;2022-09-16T01:19:31;99637.15;;;26.31;30.48
72024;BME280;59889;50.700;5.440;2022-09-16T01:21:50;99638.12;;;26.28;30.53
72024;BME280;59889;50.700;5.440;2022-09-16T01:24:23;99642.80;;;26.31;30.49
72024;BME280;59889;50.700;5.440;2022-09-16T01:26:45;99641.81;;;26.30;30.52
72024;BME280;59889;50.700;5.440;2022-09-16T01:29:13;99641.62;;;26.18;30.33
72024;BME280;59889;50.700;5.440;2022-09-16T01:31:31;99640.16;;;26.02;30.54
72024;BME280;59889;50.700;5.440;2022-09-16T01:33:56;99639.83;;;26.24;30.59
72024;BME280;59889;50.700;5.440;2022-09-16T01:36:26;99638.80;;;26.04;30.51
72024;BME280;59889;50.700;5.440;2022-09-16T01:38:51;99642.37;;;26.25;30.48
72024;BME280;59889;50.700;5.440;2022-09-16T01:41:08;99640.40;;;26.24;30.54
72024;BME280;59889;50.700;5.440;2022-09-16T01:43:38;99639.52;;;26.29;30.52
72024;BME280;59889;50.700;5.440;2022-09-16T01:45:56;99639.31;;;26.12;30.42
72024;BME280;59889;50.700;5.440;2022-09-16T01:48:22;99633.74;;;26.06;30.47
72024;BME280;59889;50.700;5.440;2022-09-16T01:50:47;99636.07;;;25.96;30.57
72024;BME280;59889;50.700;5.440;2022-09-16T01:53:13;99634.58;;;26.31;30.48
72024;BME280;59889;50.700;5.440;2022-09-16T01:55:37;99635.00;;;26.22;30.59
72024;BME280;59889;50.700;5.440;2022-09-16T01:58:03;99632.84;;;26.05;30.51
72024;BME280;59889;50.700;5.440;2022-09-16T02:00:25;99632.24;;;26.27;30.51
72024;BME280;59889;50.700;5.440;2022-09-16T02:02:54;99633.00;;;26.15;30.63
72024;BME280;59889;50.700;5.440;2022-09-16T02:05:20;99635.52;;;26.24;30.55
72024;BME280;59889;50.700;5.440;2022-09-16T02:07:47;99634.00;;;26.30;30.48
72024;BME280;59889;50.700;5.440;2022-09-16T02:10:14;99629.46;;;26.29;30.48
72024;BME280;59889;50.700;5.440;2022-09-16T02:12:37;99624.13;;;26.24;30.52
72024;BME280;59889;50.700;5.440;2022-09-16T02:15:02;99624.08;;;26.25;30.53
72024;BME280;59889;50.700;5.440;2022-09-16T02:17:25;99624.45;;;26.07;30.42
72024;BME280;59889;50.700;5.440;2022-09-16T02:19:53;99624.63;;;26.26;30.51
72024;BME280;59889;50.700;5.440;2022-09-16T02:22:21;99623.53;;;25.98;30.52
72024;BME280;59889;50.700;5.440;2022-09-16T02:24:42;99623.32;;;26.06;30.47
72024;BME280;59889;50.700;5.440;2022-09-16T02:27:10;99622.99;;;26.06;30.45
72024;BME280;59889;50.700;5.440;2022-09-16T02:29:38;99622.64;;;26.05;30.49
72024;BME280;59889;50.700;5.440;2022-09-16T02:32:00;99622.95;;;26.30;30.43
72024;BME280;59889;50.700;5.440;2022-09-16T02:34:27;99629.60;;;26.23;30.58
72024;BME280;59889;50.700;5.440;2022-09-16T02:36:52;99629.41;;;26.01;30.53
72024;BME280;59889;50.700;5.440;2022-09-16T02:39:18;99629.12;;;26.25;30.50
72024;BME280;59889;50.700;5.440;2022-09-16T02:41:40;99627.80;;;26.28;30.47
72024;BME280;59889;50.700;5.440;2022-09-16T02:44:06;99627.57;;;26.13;30.33
72024;BME280;59889;50.700;5.440;2022-09-16T02:46:38;99624.92;;;26.22;30.55
72024;BME280;59889;50.700;5.440;2022-09-16T02:49:01;99626.55;;;26.20;30.52
72024;BME280;59889;50.700;5.440;2022-09-16T02:51:29;99621.92;;;26.05;30.47
72024;BME280;59889;50.700;5.440;2022-09-16T02:53:52;99618.26;;;26.05;30.47
72024;BME280;59889;50.700;5.440;2022-09-16T02:56:20;99615.67;;;26.29;30.44
72024;BME280;59889;50.700;5.440;2022-09-16T02:58:40;99611.48;;;26.19;30.54
72024;BME280;59889;50.700;5.440;2022-09-16T03:01:06;99610.70;;;26.28;30.44
72024;BME280;59889;50.700;5.440;2022-09-16T03:03:32;99612.00;;;26.23;30.48
72024;BME280;59889;50.700;5.440;2022-09-16T03:06:10;99612.48;;;26.28;30.45
72024;BME280;59889;50.700;5.440;2022-09-16T03:08:23;99616.11;;;26.25;30.50
72024;BME280;59889;50.700;5.440;2022-09-16T03:10:51;99613.74;;;26.22;30.52
72024;BME280;59889;50.700;5.440;2022-09-16T03:13:18;99612.74;;;26.31;30.44
72024;BME280;59889;50.700;5.440;2022-09-16T03:15:50;99616.05;;;26.29;30.45
72024;BME280;59889;50.700;5.440;2022-09-16T03:18:20;99616.78;;;26.16;30.54
72024;BME280;59889;50.700;5.440;2022-09-16T03:20:40;99615.49;;;26.22;30.53
72024;BME280;59889;50.700;5.440;2022-09-16T03:23:06;99614.65;;;26.07;30.40
72024;BME280;59889;50.700;5.440;2022-09-16T03:25:40;99611.20;;;26.28;30.44
72024;BME280;59889;50.700;5.440;2022-09-16T03:27:53;99617.47;;;26.05;30.42
72024;BME280;59889;50.700;5.440;2022-09-16T03:30:17;99615.49;;;26.24;30.44
72024;BME280;59889;50.700;5.440;2022-09-16T03:32:45;99620.56;;;25.98;30.50
72024;BME280;59889;50.700;5.440;2022-09-16T03:35:12;99619.11;;;26.28;30.41
72024;BME280;59889;50.700;5.440;2022-09-16T03:37:33;99616.97;;;26.26;30.45
72024;BME280;59889;50.700;5.440;2022-09-16T03:39:59;99614.18;;;26.21;30.47
72024;BME280;59889;50.700;5.440;2022-09-16T03:42:22;99611.90;;;26.21;30.54
72024;BME280;59889;50.700;5.440;2022-09-16T03:44:47;99610.15;;;26.25;30.42
72024;BME280;59889;50.700;5.440;2022-09-16T03:47:13;99607.91;;;26.25;30.48
72024;BME280;59889;50.700;5.440;2022-09-16T03:49:37;99605.39;;;26.18;30.54
72024;BME280;59889;50.700;5.440;2022-09-16T03:52:03;99601.20;;;26.01;30.47
72024;BME280;59889;50.700;5.440;2022-09-16T03:54:27;99599.27;;;26.25;30.44
72024;BME280;59889;50.700;5.440;2022-09-16T03:56:52;99598.15;;;25.97;30.50
72024;BME280;59889;50.700;5.440;2022-09-16T03:59:17;99596.38;;;26.49;30.45
72024;BME280;59889;50.700;5.440;2022-09-16T04:01:43;99598.51;;;26.19;30.51
72024;BME280;59889;50.700;5.440;2022-09-16T04:04:09;99597.41;;;26.07;30.63
72024;BME280;59889;50.700;5.440;2022-09-16T04:06:34;99597.01;;;25.87;30.74
72024;BME280;59889;50.700;5.440;2022-09-16T04:09:01;99598.45;;;25.83;30.61
72024;BME280;59889;50.700;5.440;2022-09-16T04:11:24;99593.19;;;25.96;30.52
72024;BME280;59889;50.700;5.440;2022-09-16T04:13:49;99589.15;;;25.95;30.31
72024;BME280;59889;50.700;5.440;2022-09-16T04:16:19;99592.03;;;25.94;30.17
72024;BME280;59889;50.700;5.440;2022-09-16T04:18:39;99596.92;;;25.89;30.10
72024;BME280;59889;50.700;5.440;2022-09-16T04:21:04;99599.21;;;25.83;30.01
72024;BME280;59889;50.700;5.440;2022-09-16T04:23:29;99601.30;;;25.77;29.95
72024;BME280;59889;50.700;5.440;2022-09-16T04:25:54;99605.73;;;25.74;29.83
72024;BME280;59889;50.700;5.440;2022-09-16T04:28:19;99605.58;;;25.65;29.79
72024;BME280;59889;50.700;5.440;2022-09-16T04:30:44;99604.07;;;25.72;29.70
72024;BME280;59889;50.700;5.440;2022-09-16T04:33:09;99599.26;;;25.73;29.59
72024;BME280;59889;50.700;5.440;2022-09-16T04:35:34;99599.64;;;25.68;29.55
72024;BME280;59889;50.700;5.440;2022-09-16T04:37:59;99600.08;;;25.62;29.54
72024;BME280;59889;50.700;5.440;2022-09-16T04:40:25;99604.05;;;25.60;29.50
72024;BME280;59889;50.700;5.440;2022-09-16T04:42:50;99607.10;;;25.61;29.42
72024;BME280;59889;50.700;5.440;2022-09-16T04:45:15;99607.96;;;25.62;29.35
72024;BME280;59889;50.700;5.440;2022-09-16T04:47:39;99603.08;;;25.61;29.28
72024;BME280;59889;50.700;5.440;2022-09-16T04:50:05;99602.96;;;25.52;29.32
72024;BME280;59889;50.700;5.440;2022-09-16T04:52:30;99599.22;;;25.84;29.18
72024;BME280;59889;50.700;5.440;2022-09-16T04:54:55;99599.77;;;25.57;29.14
72024;BME280;59889;50.700;5.440;2022-09-16T04:57:20;99600.49;;;25.57;29.06
72024;BME280;59889;50.700;5.440;2022-09-16T04:59:45;99601.62;;;25.59;28.98
72024;BME280;59889;50.700;5.440;2022-09-16T05:02:09;99603.83;;;25.52;29.01
72024;BME280;59889;50.700;5.440;2022-09-16T05:04:35;99606.29;;;25.58;28.77
72024;BME280;59889;50.700;5.440;2022-09-16T05:07:00;99606.86;;;25.33;28.80
72024;BME280;59889;50.700;5.440;2022-09-16T05:09:25;99601.67;;;25.56;28.82
72024;BME280;59889;50.700;5.440;2022-09-16T05:11:50;99601.48;;;25.58;28.83
72024;BME280;59889;50.700;5.440;2022-09-16T05:14:16;99606.81;;;25.96;28.96
72024;BME280;59889;50.700;5.440;2022-09-16T05:16:40;99604.80;;;25.51;28.97
72024;BME280;59889;50.700;5.440;2022-09-16T05:19:05;99607.14;;;25.51;29.07
72024;BME280;59889;50.700;5.440;2022-09-16T05:21:37;99609.28;;;25.73;29.01
72024;BME280;59889;50.700;5.440;2022-09-16T05:23:59;99603.55;;;25.59;28.84
72024;BME280;59889;50.700;5.440;2022-09-16T05:26:22;99604.19;;;25.44;29.03
72024;BME280;59889;50.700;5.440;2022-09-16T05:28:59;99603.78;;;25.49;28.95
72024;BME280;59889;50.700;5.440;2022-09-16T05:31:12;99608.00;;;25.49;29.00
72024;BME280;59889;50.700;5.440;2022-09-16T05:33:36;99607.91;;;25.41;29.12
72024;BME280;59889;50.700;5.440;2022-09-16T05:36:03;99604.55;;;25.43;29.07
72024;BME280;59889;50.700;5.440;2022-09-16T05:38:25;99607.29;;;25.79;29.03
72024;BME280;59889;50.700;5.440;2022-09-16T05:40:51;99610.39;;;25.53;29.04
72024;BME280;59889;50.700;5.440;2022-09-16T05:43:16;99614.18;;;25.80;29.00
72024;BME280;59889;50.700;5.440;2022-09-16T05:45:42;99613.63;;;25.74;28.98
72024;BME280;59889;50.700;5.440;2022-09-16T05:48:07;99617.10;;;25.63;28.91
72024;BME280;59889;50.700;5.440;2022-09-16T05:50:32;99618.13;;;25.41;28.72
72024;BME280;59889;50.700;5.440;2022-09-16T05:52:57;99620.53;;;25.45;28.60
72024;BME280;59889;50.700;5.440;2022-09-16T05:55:22;99621.80;;;25.54;28.48
72024;BME280;59889;50.700;5.440;2022-09-16T05:57:47;99621.41;;;25.21;28.56
72024;BME280;59889;50.700;5.440;2022-09-16T06:00:13;99624.48;;;25.90;28.56
72024;BME280;59889;50.700;5.440;2022-09-16T06:02:37;99625.93;;;25.67;28.48
72024;BME280;59889;50.700;5.440;2022-09-16T06:05:03;99621.14;;;25.69;28.41
72024;BME280;59889;50.700;5.440;2022-09-16T06:07:27;99624.55;;;25.43;28.36
72024;BME280;59889;50.700;5.440;2022-09-16T06:09:52;99623.04;;;25.38;28.39
72024;BME280;59889;50.700;5.440;2022-09-16T06:12:18;99622.04;;;25.39;28.50
72024;BME280;59889;50.700;5.440;2022-09-16T06:14:48;99620.09;;;25.57;28.64
72024;BME280;59889;50.700;5.440;2022-09-16T06:17:08;99624.31;;;25.31;28.67
72024;BME280;59889;50.700;5.440;2022-09-16T06:19:33;99625.90;;;25.31;28.68
72024;BME280;59889;50.700;5.440;2022-09-16T06:21:58;99626.79;;;25.51;28.72
72024;BME280;59889;50.700;5.440;2022-09-16T06:24:23;99626.45;;;25.32;28.67
72024;BME280;59889;50.700;5.440;2022-09-16T06:26:48;99622.94;;;25.13;28.84
72024;BME280;59889;50.700;5.440;2022-09-16T06:29:14;99623.42;;;25.48;28.71
72024;BME280;59889;50.700;5.440;2022-09-16T06:31:38;99626.61;;;25.47;28.69
72024;BME280;59889;50.700;5.440;2022-09-16T06:34:05;99627.52;;;25.21;28.71
72024;BME280;59889;50.700;5.440;2022-09-16T06:36:30;99631.33;;;25.47;28.70
72024;BME280;59889;50.700;5.440;2022-09-16T06:38:53;99631.75;;;25.25;28.68
72024;BME280;59889;50.700;5.440;2022-09-16T06:41:19;99633.35;;;25.24;28.68
72024;BME280;59889;50.700;5.440;2022-09-16T06:43:44;99634.96;;;25.46;28.70
72024;BME280;59889;50.700;5.440;2022-09-16T06:46:10;99632.93;;;25.46;28.66
72024;BME280;59889;50.700;5.440;2022-09-16T06:48:33;99639.31;;;25.21;28.66
72024;BME280;59889;50.700;5.440;2022-09-16T06:50:59;99640.11;;;25.44;28.66
72024;BME280;59889;50.700;5.440;2022-09-16T06:53:23;99638.90;;;25.14;28.73
72024;BME280;59889;50.700;5.440;2022-09-16T06:55:48;99640.18;;;25.10;28.75
72024;BME280;59889;50.700;5.440;2022-09-16T06:58:13;99639.20;;;25.42;28.66
72024;BME280;59889;50.700;5.440;2022-09-16T07:00:38;99637.82;;;25.45;28.61
72024;BME280;59889;50.700;5.440;2022-09-16T07:03:03;99636.36;;;25.93;28.37
72024;BME280;59889;50.700;5.440;2022-09-16T07:05:28;99635.50;;;25.90;28.15
72024;BME280;59889;50.700;5.440;2022-09-16T07:07:53;99639.84;;;25.42;28.35
72024;BME280;59889;50.700;5.440;2022-09-16T07:10:18;99640.66;;;25.41;28.37
72024;BME280;59889;50.700;5.440;2022-09-16T07:12:43;99641.56;;;25.53;28.49
72024;BME280;59889;50.700;5.440;2022-09-16T07:15:09;99641.06;;;25.53;28.46
72024;BME280;59889;50.700;5.440;2022-09-16T07:17:33;99640.62;;;25.36;28.39
72024;BME280;59889;50.700;5.440;2022-09-16T07:19:58;99641.98;;;25.62;28.14
72024;BME280;59889;50.700;5.440;2022-09-16T07:22:23;99650.65;;;25.98;27.94
72024;BME280;59889;50.700;5.440;2022-09-16T07:24:48;99649.85;;;25.45;27.98
72024;BME280;59889;50.700;5.440;2022-09-16T07:27:13;99646.38;;;25.58;28.07
72024;BME280;59889;50.700;5.440;2022-09-16T07:29:38;99648.36;;;25.71;28.16
72024;BME280;59889;50.700;5.440;2022-09-16T07:32:03;99648.63;;;25.28;28.36
72024;BME280;59889;50.700;5.440;2022-09-16T07:34:28;99651.42;;;25.27;28.38
72024;BME280;59889;50.700;5.440;2022-09-16T07:36:53;99652.70;;;25.23;28.40
72024;BME280;59889;50.700;5.440;2022-09-16T07:39:18;99653.94;;;25.22;28.42
72024;BME280;59889;50.700;5.440;2022-09-16T07:41:44;99656.70;;;25.48;28.41
72024;BME280;59889;50.700;5.440;2022-09-16T07:44:11;99657.54;;;25.53;28.35
72024;BME280;59889;50.700;5.440;2022-09-16T07:46:34;99657.28;;;25.19;28.48
72024;BME280;59889;50.700;5.440;2022-09-16T07:49:00;99660.90;;;25.27;28.49
72024;BME280;59889;50.700;5.440;2022-09-16T07:51:25;99660.50;;;25.48;28.59
72024;BME280;59889;50.700;5.440;2022-09-16T07:53:52;99662.68;;;25.05;28.61
72024;BME280;59889;50.700;5.440;2022-09-16T07:56:15;99665.88;;;25.51;28.70
72024;BME280;59889;50.700;5.440;2022-09-16T07:58:39;99673.68;;;25.49;28.86
72024;BME280;59889;50.700;5.440;2022-09-16T08:01:04;99675.18;;;25.49;28.82
72024;BME280;59889;50.700;5.440;2022-09-16T08:03:28;99678.08;;;25.18;28.89
72024;BME280;59889;50.700;5.440;2022-09-16T08:05:58;99675.66;;;25.23;28.82
72024;BME280;59889;50.700;5.440;2022-09-16T08:08:18;99671.54;;;25.14;28.87
72024;BME280;59889;50.700;5.440;2022-09-16T08:10:51;99672.68;;;25.09;28.96
72024;BME280;59889;50.700;5.440;2022-09-16T08:13:09;99677.01;;;25.17;28.93
72024;BME280;59889;50.700;5.440;2022-09-16T08:15:35;99679.08;;;25.66;28.93
72024;BME280;59889;50.700;5.440;2022-09-16T08:18:00;99677.25;;;25.17;28.95
72024;BME280;59889;50.700;5.440;2022-09-16T08:20:25;99675.97;;;25.61;29.01
72024;BME280;59889;50.700;5.440;2022-09-16T08:22:50;99680.24;;;25.12;29.04
72024;BME280;59889;50.700;5.440;2022-09-16T08:25:15;99679.89;;;25.33;29.05
72024;BME280;59889;50.700;5.440;2022-09-16T08:27:40;99683.75;;;25.66;29.06
72024;BME280;59889;50.700;5.440;2022-09-16T08:30:06;99691.32;;;25.30;29.22
72024;BME280;59889;50.700;5.440;2022-09-16T08:32:30;99697.10;;;25.25;29.37
72024;BME280;59889;50.700;5.440;2022-09-16T08:34:55;99700.85;;;25.05;29.40
72024;BME280;59889;50.700;5.440;2022-09-16T08:37:20;99699.00;;;25.27;29.43
72024;BME280;59889;50.700;5.440;2022-09-16T08:39:46;99700.38;;;25.52;29.44
72024;BME280;59889;50.700;5.440;2022-09-16T08:42:28;99698.23;;;25.22;29.50
72024;BME280;59889;50.700;5.440;2022-09-16T08:44:41;99700.16;;;25.29;29.42
72024;BME280;59889;50.700;5.440;2022-09-16T08:47:01;99701.33;;;25.06;29.43
72024;BME280;59889;50.700;5.440;2022-09-16T08:49:31;99704.23;;;25.32;29.42
72024;BME280;59889;50.700;5.440;2022-09-16T08:51:50;99704.57;;;25.24;29.50
72024;BME280;59889;50.700;5.440;2022-09-16T08:54:25;99705.94;;;25.25;29.47
72024;BME280;59889;50.700;5.440;2022-09-16T08:56:41;99706.74;;;25.47;29.50
72024;BME280;59889;50.700;5.440;2022-09-16T08:59:11;99707.17;;;25.00;29.49
72024;BME280;59889;50.700;5.440;2022-09-16T09:01:33;99711.55;;;25.22;29.50
72024;BME280;59889;50.700;5.440;2022-09-16T09:03:55;99713.43;;;25.19;29.54
72024;BME280;59889;50.700;5.440;2022-09-16T09:06:32;99717.06;;;25.22;29.51
72024;BME280;59889;50.700;5.440;2022-09-16T09:08:50;99719.30;;;24.99;29.53
72024;BME280;59889;50.700;5.440;2022-09-16T09:11:16;99720.31;;;24.94;29.56
72024;BME280;59889;50.700;5.440;2022-09-16T09:13:49;99721.85;;;25.12;29.63
72024;BME280;59889;50.700;5.440;2022-09-16T09:16:05;99721.80;;;25.18;29.57
72024;BME280;59889;50.700;5.440;2022-09-16T09:18:35;99726.98;;;25.48;29.48
72024;BME280;59889;50.700;5.440;2022-09-16T09:20:55;99730.29;;;24.87;29.62
72024;BME280;59889;50.700;5.440;2022-09-16T09:23:26;99730.81;;;25.36;29.61
72024;BME280;59889;50.700;5.440;2022-09-16T09:25:45;99729.87;;;25.20;29.53
72024;BME280;59889;50.700;5.440;2022-09-16T09:28:17;99728.72;;;25.09;29.63
72024;BME280;59889;50.700;5.440;2022-09-16T09:30:31;99724.75;;;25.17;29.56
72024;BME280;59889;50.700;5.440;2022-09-16T09:33:05;99720.31;;;25.10;29.60
72024;BME280;59889;50.700;5.440;2022-09-16T09:35:27;99717.04;;;24.92;29.56
72024;BME280;59889;50.700;5.440;2022-09-16T09:37:58;99713.67;;;25.41;29.56
72024;BME280;59889;50.700;5.440;2022-09-16T09:40:12;99709.82;;;25.20;29.54
72024;BME280;59889;50.700;5.440;2022-09-16T09:42:39;99703.84;;;25.22;29.51
72024;BME280;59889;50.700;5.440;2022-09-16T09:45:03;99704.59;;;24.99;29.52
72024;BME280;59889;50.700;5.440;2022-09-16T09:47:30;99709.16;;;25.02;29.51
72024;BME280;59889;50.700;5.440;2022-09-16T09:49:55;99705.51;;;25.26;29.51
72024;BME280;59889;50.700;5.440;2022-09-16T09:52:19;99701.66;;;25.23;29.53
72024;BME280;59889;50.700;5.440;2022-09-16T09:54:44;99700.75;;;25.50;29.50
72024;BME280;59889;50.700;5.440;2022-09-16T09:57:11;99705.44;;;25.27;29.50
72024;BME280;59889;50.700;5.440;2022-09-16T09:59:35;99706.82;;;25.45;29.55
72024;BME280;59889;50.700;5.440;2022-09-16T10:01:56;99709.25;;;24.98;29.54
72024;BME280;59889;50.700;5.440;2022-09-16T10:04:20;99708.46;;;25.02;29.50
72024;BME280;59889;50.700;5.440;2022-09-16T10:06:46;99710.82;;;25.40;29.64
72024;BME280;59889;50.700;5.440;2022-09-16T10:09:12;99713.26;;;24.88;29.65
72024;BME280;59889;50.700;5.440;2022-09-16T10:11:44;99711.99;;;25.45;29.53
72024;BME280;59889;50.700;5.440;2022-09-16T10:14:01;99708.69;;;25.49;29.46
72024;BME280;59889;50.700;5.440;2022-09-16T10:16:27;99709.27;;;25.16;29.54
72024;BME280;59889;50.700;5.440;2022-09-16T10:18:56;99710.21;;;25.25;29.44
72024;BME280;59889;50.700;5.440;2022-09-16T10:21:16;99711.08;;;25.26;29.45
72024;BME280;59889;50.700;5.440;2022-09-16T10:23:51;99709.77;;;25.50;29.43
72024;BME280;59889;50.700;5.440;2022-09-16T10:26:18;99711.51;;;25.28;29.43
72024;BME280;59889;50.700;5.440;2022-09-16T10:28:31;99710.51;;;25.51;29.43
72024;BME280;59889;50.700;5.440;2022-09-16T10:30:57;99714.66;;;25.56;29.39
72024;BME280;59889;50.700;5.440;2022-09-16T10:33:23;99714.23;;;25.39;29.61
72024;BME280;59889;50.700;5.440;2022-09-16T10:35:51;99713.47;;;25.21;29.56
72024;BME280;59889;50.700;5.440;2022-09-16T10:38:16;99712.08;;;25.20;29.57
72024;BME280;59889;50.700;5.440;2022-09-16T10:40:36;99710.22;;;25.16;29.59
72024;BME280;59889;50.700;5.440;2022-09-16T10:43:02;99717.80;;;25.44;29.56
72024;BME280;59889;50.700;5.440;2022-09-16T10:45:28;99718.63;;;25.36;29.63
72024;BME280;59889;50.700;5.440;2022-09-16T10:47:53;99722.33;;;25.09;29.62
72024;BME280;59889;50.700;5.440;2022-09-16T10:50:17;99723.12;;;25.19;29.48
72024;BME280;59889;50.700;5.440;2022-09-16T10:52:42;99722.85;;;24.91;29.50
72024;BME280;59889;50.700;5.440;2022-09-16T10:57:32;99720.12;;;25.21;29.42
72024;BME280;59889;50.700;5.440;2022-09-16T10:59:58;99719.95;;;25.38;29.49
72024;BME280;59889;50.700;5.440;2022-09-16T11:02:28;99715.38;;;25.18;29.46
72024;BME280;59889;50.700;5.440;2022-09-16T11:04:54;99711.75;;;25.21;29.45
72024;BME280;59889;50.700;5.440;2022-09-16T11:07:20;99709.89;;;25.20;29.46
72024;BME280;59889;50.700;5.440;2022-09-16T11:09:42;99707.99;;;25.26;29.39
72024;BME280;59889;50.700;5.440;2022-09-16T11:14:37;99705.45;;;25.17;29.52
72024;BME280;59889;50.700;5.440;2022-09-16T11:17:01;99706.41;;;25.22;29.47
72024;BME280;59889;50.700;5.440;2022-09-16T11:19:21;99704.35;;;25.00;29.46
72024;BME280;59889;50.700;5.440;2022-09-16T11:21:50;99703.09;;;25.29;29.40
72024;BME280;59889;50.700;5.440;2022-09-16T11:24:15;99701.10;;;24.91;29.55
72024;BME280;59889;50.700;5.440;2022-09-16T11:26:37;99704.68;;;25.01;29.47
72024;BME280;59889;50.700;5.440;2022-09-16T11:29:11;99703.20;;;25.44;29.49
72024;BME280;59889;50.700;5.440;2022-09-16T11:31:29;99707.87;;;25.07;29.38
72024;BME280;59889;50.700;5.440;2022-09-16T11:33:49;99707.00;;;25.30;29.36
72024;BME280;59889;50.700;5.440;2022-09-16T11:36:23;99704.20;;;25.21;29.44
72024;BME280;59889;50.700;5.440;2022-09-16T11:38:41;99706.68;;;25.31;29.32
72024;BME280;59889;50.700;5.440;2022-09-16T11:41:05;99708.35;;;25.30;29.30
72024;BME280;59889;50.700;5.440;2022-09-16T11:43:39;99710.56;;;25.22;29.37
72024;BME280;59889;50.700;5.440;2022-09-16T11:45:56;99710.99;;;25.02;29.30
72024;BME280;59889;50.700;5.440;2022-09-16T11:48:25;99709.90;;;25.25;29.31
72024;BME280;59889;50.700;5.440;2022-09-16T11:50:47;99716.28;;;24.92;29.40
72024;BME280;59889;50.700;5.440;2022-09-16T11:53:15;99725.58;;;25.23;29.34
72024;BME280;59889;50.700;5.440;2022-09-16T11:55:41;99729.67;;;25.03;29.28
72024;BME280;59889;50.700;5.440;2022-09-16T11:57:59;99732.29;;;25.22;29.31
72024;BME280;59889;50.700;5.440;2022-09-16T12:00:21;99737.36;;;25.02;29.26
72024;BME280;59889;50.700;5.440;2022-09-16T12:02:54;99738.91;;;25.21;29.33
72024;BME280;59889;50.700;5.440;2022-09-16T12:05:17;99739.50;;;25.22;29.30
72024;BME280;59889;50.700;5.440;2022-09-16T12:07:41;99734.70;;;25.14;29.38
72024;BME280;59889;50.700;5.440;2022-09-16T12:10:03;99728.59;;;24.95;29.29
72024;BME280;59889;50.700;5.440;2022-09-16T12:12:31;99725.60;;;25.00;29.44
72024;BME280;59889;50.700;5.440;2022-09-16T12:14:57;99727.96;;;25.16;29.26
72024;BME280;59889;50.700;5.440;2022-09-16T12:17:19;99724.65;;;25.09;29.31
72024;BME280;59889;50.700;5.440;2022-09-16T12:19:45;99720.00;;;25.33;29.32
72024;BME280;59889;50.700;5.440;2022-09-16T12:22:10;99719.84;;;25.36;29.28
72024;BME280;59889;50.700;5.440;2022-09-16T12:24:38;99722.41;;;25.41;29.19
72024;BME280;59889;50.700;5.440;2022-09-16T12:27:02;99727.89;;;25.18;29.17
72024;BME280;59889;50.700;5.440;2022-09-16T12:29:26;99724.48;;;24.90;29.23
72024;BME280;59889;50.700;5.440;2022-09-16T12:31:51;99724.18;;;25.24;29.12
72024;BME280;59889;50.700;5.440;2022-09-16T12:34:14;99718.19;;;25.26;29.15
72024;BME280;59889;50.700;5.440;2022-09-16T12:36:38;99725.42;;;25.42;29.24
72024;BME280;59889;50.700;5.440;2022-09-16T12:39:02;99719.72;;;25.19;29.28
72024;BME280;59889;50.700;5.440;2022-09-16T12:44:04;99719.45;;;25.04;29.47
72024;BME280;59889;50.700;5.440;2022-09-16T12:46:26;99719.35;;;25.15;29.39
72024;BME280;59889;50.700;5.440;2022-09-16T12:51:15;99721.70;;;25.28;29.22
72024;BME280;59889;50.700;5.440;2022-09-16T12:53:46;99722.55;;;25.43;29.28
72024;BME280;59889;50.700;5.440;2022-09-16T12:56:03;99735.76;;;25.18;29.29
72024;BME280;59889;50.700;5.440;2022-09-16T12:58:37;99746.06;;;25.06;29.40